MAPA DE AEROPUERTO

INFORMACIÓN METAR y TAF

METAR FOR LEBB
ADDS - METARS form results

(1522 UTC 02 December 2020)
Data provider http://aviationweather.gov/metar/data/
 
METAR text: LEBB 021500Z 00000KT 9999 FEW030 SCT055 10/07 Q1021 NOSIG
Conditions at: LEBB (BILBAO/SONDICA , ES) observed 1500 UTC 02 December 2020
Temperature: 10.0°C (50°F)
Dewpoint: 7.0°C (45°F) [RH = 82%]
Pressure (altimeter): 30.15 inches Hg (1021.0 mb)
Winds: calm
Visibility: 6 or more miles (10+ km)
Ceiling: at least 12,000 feet AGL
Clouds: few clouds at 3000 feet AGL
scattered clouds at 5500 feet AGL
Weather: no significant weather observed at this time

METAR text: LEBB 021430Z VRB01KT 9999 FEW035 SCT060 10/07 Q1021 NOSIG
Conditions at: LEBB (BILBAO/SONDICA , ES) observed 1430 UTC 02 December 2020
Temperature: 10.0°C (50°F)
Dewpoint: 7.0°C (45°F) [RH = 82%]
Pressure (altimeter): 30.15 inches Hg (1021.0 mb)
Winds: variable direction winds at 1 MPH (1 knots; 0.5 m/s)
Visibility: 6 or more miles (10+ km)
Ceiling: at least 12,000 feet AGL
Clouds: few clouds at 3500 feet AGL
scattered clouds at 6000 feet AGL
Weather: no significant weather observed at this time

Forecast for: LEBB (BILBAO/SONDICA , ES)
Text: TAF LEBB 021100Z 0212/0312 36009KT 9999 FEW025 SCT040 TX11/0213Z TN06/0300Z
Forecast period: 1200 UTC 02 December 2020 to 1200 UTC 03 December 2020
Forecast type: FROM: standard forecast or significant change
Winds: from the N (360 degrees) at 10 MPH (9 knots; 4.6 m/s)
Visibility: 6 or more miles (10+ km)
Ceiling: at least 12,000 feet AGL
Clouds: few clouds at 2500 feet AGL
scattered clouds at 4000 feet AGL
Weather: no significant weather forecast for this period
Text: PROB30
Forecast period: 1200 to 1500 UTC 02 December 2020
Forecast type: TEMPORARY: The following changes expected for less than half the time period
Visibility: 2.49 miles (4.01 km)
Ceiling: at least 12,000 feet AGL
Clouds: scattered clouds at 3000 feet AGL
Weather: RA SHRA  (moderate rain, rain showers)
Text: TEMPO 0212/0215 4000 RA SHRA SCT030TCU
Forecast period: 1800 UTC 02 December 2020 to 1200 UTC 03 December 2020
Forecast type: TEMPORARY: The following changes expected for less than half the time period
Winds: variable direction winds at 2 MPH (2 knots; 1.0 m/s)
Visibility: missing
Ceiling: unknown
Clouds: missing
Weather: no significant weather forecast for this period
Text: TEMPO 0218/0312 VRB02KT
Forecast period: 0600 to 1200 UTC 03 December 2020
Forecast type: TEMPORARY: The following changes expected for less than half the time period
Winds: from the SW (220 degrees) at 10 MPH (9 knots; 4.6 m/s)
Visibility: missing
Ceiling: unknown
Clouds: missing
Weather: no significant weather forecast for this period